AirNav   Duncan Aviation - Near you to keep you flying
 
 1086 users online  

II44 Northwest Health - Starke Heliport
Knox, Indiana, USA

GOING TO KNOX?


FAA INFORMATION EFFECTIVE 26 JANUARY 2023

Location

FAA Identifier: II44
Lat/Long: 41-17-13.0900N 086-37-20.8400W
41-17.218167N 086-37.347333W
41.2869694,-86.6224556
(estimated)
Elevation: 720 ft. / 219 m (estimated)
Variation: 02W (1990)
Time zone: UTC -6 (UTC -5 during Daylight Saving Time)
Zip code: 46534

Heliport Operations

Heliport use: Private use. Permission required prior to landing
Activation date: 12/1991
Control tower: no
ARTCC: CHICAGO CENTER
FSS: TERRE HAUTE FLIGHT SERVICE STATION
Attendance: UNATNDD
Wind indicator: lighted
Segmented circle: no
Lights: PERIMETER LGTS - 219-772-6231.

Heliport Communications

WX AWOS-3 at OXI (3 nm NW): 135.775 (574-772-2041)
WX AWOS-3 at C65 (15 nm E): 133.025 (574-935-3854)
WX AWOS-3 at PPO (18 nm N): 119.825 (219-326-6916)

Nearby radio navigation aids

VOR radial/distance  VOR name  Freq  Var
OXIr150/2.4KNOX VOR/DME115.6000E
GSHr242/30.3GOSHEN VORTAC113.7000E
GIJr205/32.0GIPPER VORTAC115.4000E

Heliport Services

Runway Information

Helipad H1

Dimensions: 40 x 40 ft. / 12 x 12 m
Surface: concrete, in fair condition
Runway edge lights: PERI
Latitude: 41-17.218167N
Longitude: 086-37.347333W
Elevation: 720.0 ft.
Traffic pattern: leftleft
Markings: basic, in fair condition

Heliport Ownership and Management from official FAA records

Ownership: Privately-owned
Owner: CNI STARKE HOSPITAL
102 E. CULVER ROAD
KNOX, IN 46534
Phone 574-772-6231
Manager: MARK ANDREWS
102 E. CULVER ROAD
KNOX, IN 46534
Phone (574) 772-6231

Additional Remarks

A52-H1 30 FT LINE 150 FT W; 26 FT BLDG 110 FT NE OF PAD.
FOR CD CTC CHICAGO ARTCC AT 630-906-8921.

Instrument Procedures

There are no published instrument procedures at II44.

Some nearby airports with instrument procedures:

KOXI - Starke County Airport (3 nm NW)
KRWN - Arens Field Airport (12 nm S)
C65 - Plymouth Municipal Airport (15 nm E)
KPPO - La Porte Municipal Airport (18 nm N)
KVPZ - Porter County Regional Airport (20 nm NW)
 
Loc | Ops | Rwys | IFR | FBO | Links
Com | Nav | Svcs | Stats | Notes
Area around II44 (Northwest Health - Starke Heliport)
 
Road maps at: MapQuest Bing Google
 
Aerial photo
No photo
 
Sectional chart

 
Airport distance calculator
Flying to Northwest Health - Starke Heliport? Find the distance to fly.

From to II44

Sunrise and sunset
Times for 08-Feb-2023
 Local
(UTC-6)
 Zulu
(UTC)
Morning civil twilight06:2212:22
Sunrise06:5112:51
Sunset17:1023:10
Evening civil twilight17:3923:39

Current date and time
Zulu (UTC)  09-Feb-2023 03:16:30
Local (UTC-6)  08-Feb-2023 21:16:30
 
METAR
KOXI 
3nm NW 
090255Z AUTO 11004KT 10SM BKN055 OVC075 04/01 A3008 RMK AO1
KC65 
15nm E 
090255Z AUTO 10004KT 10SM BKN060 OVC075 04/01 A3007 RMK A01
KPPO 
18nm N 
090255Z AUTO 09005KT 10SM BKN050 BKN065 OVC075 03/02 A3008 RMK AO2 T00250017
KVPZ 
20nm NW 
090256Z AUTO 08008KT 9SM OVC060 02/M01 A3005 RMK AO2 PRESFR SLP185 T00221006 58034
TAF
KSBN 
28nm NE 
081741Z 0818/0918 15008KT P6SM BKN200 FM090500 11009KT 5SM -RA BR OVC045 FM090800 10012G21KT 3SM -RA BR OVC007 FM091200 11016G27KT 2SM RA BR OVC006 WS020/17050KT FM091400 16017G31KT 2SM RA BR OVC008 WS020/19050KT FM091600 19021G38KT 3SM RA BR OVC012
NOTAMs
Click for the latest NOTAMs
NOTAMs are issued by the DoD/FAA and will open in a separate window not controlled by AirNav.

 

 
 

Would you like to see your business listed on this page?

 If your business provides an interesting product or service to pilots, flight crews, aircraft, or users of the Northwest Health - Starke Heliport, you should consider listing it here.  To start the listing process, click on the button below
 
Add a business
 

Other Pages about Northwest Health - Starke Heliport

Update a link
 
Copyright © AirNav, LLC. All rights reserved. Privacy Policy  Contact